sensor_id;sensor_type;location;lat;lon;timestamp;temperature;humidity
40291;DHT22;26000;48.304;13.626;2022-08-21T00:01:26;18.30;99.90
40291;DHT22;26000;48.304;13.626;2022-08-21T00:03:54;18.30;99.90
40291;DHT22;26000;48.304;13.626;2022-08-21T00:06:20;18.30;99.90
40291;DHT22;26000;48.304;13.626;2022-08-21T00:08:46;18.30;99.90
40291;DHT22;26000;48.304;13.626;2022-08-21T00:11:12;18.30;99.90
40291;DHT22;26000;48.304;13.626;2022-08-21T00:13:39;18.30;99.90
40291;DHT22;26000;48.304;13.626;2022-08-21T00:16:05;18.30;99.90
40291;DHT22;26000;48.304;13.626;2022-08-21T00:18:31;18.30;99.90
40291;DHT22;26000;48.304;13.626;2022-08-21T00:20:56;18.40;99.90
40291;DHT22;26000;48.304;13.626;2022-08-21T00:23:22;18.40;99.90
40291;DHT22;26000;48.304;13.626;2022-08-21T00:25:48;18.30;99.90
40291;DHT22;26000;48.304;13.626;2022-08-21T00:28:14;18.30;99.90
40291;DHT22;26000;48.304;13.626;2022-08-21T00:30:41;18.40;99.90
40291;DHT22;26000;48.304;13.626;2022-08-21T00:33:07;18.40;99.90
40291;DHT22;26000;48.304;13.626;2022-08-21T00:35:36;18.40;99.90
40291;DHT22;26000;48.304;13.626;2022-08-21T00:38:03;18.40;99.90
40291;DHT22;26000;48.304;13.626;2022-08-21T00:40:35;18.40;99.90
40291;DHT22;26000;48.304;13.626;2022-08-21T00:43:03;18.30;99.90
40291;DHT22;26000;48.304;13.626;2022-08-21T00:45:29;18.30;99.90
40291;DHT22;26000;48.304;13.626;2022-08-21T00:47:55;18.40;99.90
40291;DHT22;26000;48.304;13.626;2022-08-21T00:50:22;18.40;99.90
40291;DHT22;26000;48.304;13.626;2022-08-21T00:52:50;18.40;99.90
40291;DHT22;26000;48.304;13.626;2022-08-21T00:55:16;18.40;99.90
40291;DHT22;26000;48.304;13.626;2022-08-21T00:57:46;18.40;99.90
40291;DHT22;26000;48.304;13.626;2022-08-21T01:00:18;18.30;99.90
40291;DHT22;26000;48.304;13.626;2022-08-21T01:02:45;18.40;99.90
40291;DHT22;26000;48.304;13.626;2022-08-21T01:05:11;18.30;99.90
40291;DHT22;26000;48.304;13.626;2022-08-21T01:07:37;18.30;99.90
40291;DHT22;26000;48.304;13.626;2022-08-21T01:10:05;18.20;99.90
40291;DHT22;26000;48.304;13.626;2022-08-21T01:12:32;18.30;99.90
40291;DHT22;26000;48.304;13.626;2022-08-21T01:14:58;18.30;99.90
40291;DHT22;26000;48.304;13.626;2022-08-21T01:17:24;18.30;99.90
40291;DHT22;26000;48.304;13.626;2022-08-21T01:19:50;18.30;99.90
40291;DHT22;26000;48.304;13.626;2022-08-21T01:22:16;18.30;99.90
40291;DHT22;26000;48.304;13.626;2022-08-21T01:24:42;18.30;99.90
40291;DHT22;26000;48.304;13.626;2022-08-21T01:27:07;18.30;99.90
40291;DHT22;26000;48.304;13.626;2022-08-21T01:29:41;18.40;99.90
40291;DHT22;26000;48.304;13.626;2022-08-21T01:32:12;18.40;99.90
40291;DHT22;26000;48.304;13.626;2022-08-21T01:34:43;18.30;99.90
40291;DHT22;26000;48.304;13.626;2022-08-21T01:37:09;18.30;99.90
40291;DHT22;26000;48.304;13.626;2022-08-21T01:39:36;18.30;99.90
40291;DHT22;26000;48.304;13.626;2022-08-21T01:42:04;18.30;99.90
40291;DHT22;26000;48.304;13.626;2022-08-21T01:44:30;18.40;99.90
40291;DHT22;26000;48.304;13.626;2022-08-21T01:46:58;18.40;99.90
40291;DHT22;26000;48.304;13.626;2022-08-21T01:49:24;18.30;99.90
40291;DHT22;26000;48.304;13.626;2022-08-21T01:51:49;18.30;99.90
40291;DHT22;26000;48.304;13.626;2022-08-21T01:54:15;18.30;99.90
40291;DHT22;26000;48.304;13.626;2022-08-21T01:56:46;18.30;99.90
40291;DHT22;26000;48.304;13.626;2022-08-21T01:59:13;18.30;99.90
40291;DHT22;26000;48.304;13.626;2022-08-21T02:01:38;18.30;99.90
40291;DHT22;26000;48.304;13.626;2022-08-21T02:04:05;18.40;99.90
40291;DHT22;26000;48.304;13.626;2022-08-21T02:06:31;18.40;99.90
40291;DHT22;26000;48.304;13.626;2022-08-21T02:08:57;18.30;99.90
40291;DHT22;26000;48.304;13.626;2022-08-21T02:11:23;18.30;99.90
40291;DHT22;26000;48.304;13.626;2022-08-21T02:13:48;18.30;99.90
40291;DHT22;26000;48.304;13.626;2022-08-21T02:16:14;18.30;99.90
40291;DHT22;26000;48.304;13.626;2022-08-21T02:18:41;18.40;99.90
40291;DHT22;26000;48.304;13.626;2022-08-21T02:21:07;18.40;99.90
40291;DHT22;26000;48.304;13.626;2022-08-21T02:23:33;18.30;99.90
40291;DHT22;26000;48.304;13.626;2022-08-21T02:26:00;18.40;99.90
40291;DHT22;26000;48.304;13.626;2022-08-21T02:28:26;18.30;99.90
40291;DHT22;26000;48.304;13.626;2022-08-21T02:30:52;18.30;99.90
40291;DHT22;26000;48.304;13.626;2022-08-21T02:33:18;18.40;99.90
40291;DHT22;26000;48.304;13.626;2022-08-21T02:35:45;18.40;99.90
40291;DHT22;26000;48.304;13.626;2022-08-21T02:38:16;18.30;99.90
40291;DHT22;26000;48.304;13.626;2022-08-21T02:40:45;18.20;99.90
40291;DHT22;26000;48.304;13.626;2022-08-21T02:43:11;18.30;99.90
40291;DHT22;26000;48.304;13.626;2022-08-21T02:45:39;18.20;99.90
40291;DHT22;26000;48.304;13.626;2022-08-21T02:48:11;18.20;99.90
40291;DHT22;26000;48.304;13.626;2022-08-21T02:50:51;18.20;99.90
40291;DHT22;26000;48.304;13.626;2022-08-21T02:53:16;18.10;99.90
40291;DHT22;26000;48.304;13.626;2022-08-21T02:55:44;18.20;99.90
40291;DHT22;26000;48.304;13.626;2022-08-21T02:58:11;18.20;99.90
40291;DHT22;26000;48.304;13.626;2022-08-21T03:00:38;18.20;99.90
40291;DHT22;26000;48.304;13.626;2022-08-21T03:03:04;18.20;99.90
40291;DHT22;26000;48.304;13.626;2022-08-21T03:05:32;18.20;99.90
40291;DHT22;26000;48.304;13.626;2022-08-21T03:08:01;18.20;99.90
40291;DHT22;26000;48.304;13.626;2022-08-21T03:10:27;18.20;99.90
40291;DHT22;26000;48.304;13.626;2022-08-21T03:12:53;18.20;99.90
40291;DHT22;26000;48.304;13.626;2022-08-21T03:15:21;18.20;99.90
40291;DHT22;26000;48.304;13.626;2022-08-21T03:17:49;18.20;99.90
40291;DHT22;26000;48.304;13.626;2022-08-21T03:20:18;18.10;99.90
40291;DHT22;26000;48.304;13.626;2022-08-21T03:22:45;18.10;99.90
40291;DHT22;26000;48.304;13.626;2022-08-21T03:25:11;18.20;99.90
40291;DHT22;26000;48.304;13.626;2022-08-21T03:27:37;18.20;99.90
40291;DHT22;26000;48.304;13.626;2022-08-21T03:30:05;18.20;99.90
40291;DHT22;26000;48.304;13.626;2022-08-21T03:32:31;18.20;99.90
40291;DHT22;26000;48.304;13.626;2022-08-21T03:34:57;18.20;99.90
40291;DHT22;26000;48.304;13.626;2022-08-21T03:37:23;18.20;99.90
40291;DHT22;26000;48.304;13.626;2022-08-21T03:39:50;18.20;99.90
40291;DHT22;26000;48.304;13.626;2022-08-21T03:42:16;18.20;99.90
40291;DHT22;26000;48.304;13.626;2022-08-21T03:44:41;18.20;99.90
40291;DHT22;26000;48.304;13.626;2022-08-21T03:47:07;18.20;99.90
40291;DHT22;26000;48.304;13.626;2022-08-21T03:49:33;18.20;99.90
40291;DHT22;26000;48.304;13.626;2022-08-21T03:51:59;18.20;99.90
40291;DHT22;26000;48.304;13.626;2022-08-21T03:54:25;18.20;99.90
40291;DHT22;26000;48.304;13.626;2022-08-21T03:56:50;18.20;99.90
40291;DHT22;26000;48.304;13.626;2022-08-21T03:59:17;18.20;99.90
40291;DHT22;26000;48.304;13.626;2022-08-21T04:01:59;18.20;99.90
40291;DHT22;26000;48.304;13.626;2022-08-21T04:04:26;18.20;99.90
40291;DHT22;26000;48.304;13.626;2022-08-21T04:06:53;18.20;99.90
40291;DHT22;26000;48.304;13.626;2022-08-21T04:09:18;18.20;99.90
40291;DHT22;26000;48.304;13.626;2022-08-21T04:11:45;18.20;99.90
40291;DHT22;26000;48.304;13.626;2022-08-21T04:14:13;18.20;99.90
40291;DHT22;26000;48.304;13.626;2022-08-21T04:16:39;18.20;99.90
40291;DHT22;26000;48.304;13.626;2022-08-21T04:19:05;18.20;99.90
40291;DHT22;26000;48.304;13.626;2022-08-21T04:21:31;18.30;99.90
40291;DHT22;26000;48.304;13.626;2022-08-21T04:23:57;18.30;99.90
40291;DHT22;26000;48.304;13.626;2022-08-21T04:26:23;18.20;99.90
40291;DHT22;26000;48.304;13.626;2022-08-21T04:28:50;18.30;99.90
40291;DHT22;26000;48.304;13.626;2022-08-21T04:31:16;18.30;99.90
40291;DHT22;26000;48.304;13.626;2022-08-21T04:33:42;18.30;99.90
40291;DHT22;26000;48.304;13.626;2022-08-21T04:36:08;18.30;99.90
40291;DHT22;26000;48.304;13.626;2022-08-21T04:38:34;18.40;99.90
40291;DHT22;26000;48.304;13.626;2022-08-21T04:40:59;18.30;99.90
40291;DHT22;26000;48.304;13.626;2022-08-21T04:43:25;18.30;99.90
40291;DHT22;26000;48.304;13.626;2022-08-21T04:45:51;18.30;99.90
40291;DHT22;26000;48.304;13.626;2022-08-21T04:48:19;18.30;99.90
40291;DHT22;26000;48.304;13.626;2022-08-21T04:51:00;18.40;99.90
40291;DHT22;26000;48.304;13.626;2022-08-21T04:53:52;18.40;99.90
40291;DHT22;26000;48.304;13.626;2022-08-21T04:56:29;18.40;99.90
40291;DHT22;26000;48.304;13.626;2022-08-21T04:59:00;18.40;99.90
40291;DHT22;26000;48.304;13.626;2022-08-21T05:01:29;18.40;99.90
40291;DHT22;26000;48.304;13.626;2022-08-21T05:03:58;18.40;99.90
40291;DHT22;26000;48.304;13.626;2022-08-21T05:06:25;18.40;99.90
40291;DHT22;26000;48.304;13.626;2022-08-21T05:08:53;18.40;99.90
40291;DHT22;26000;48.304;13.626;2022-08-21T05:11:19;18.50;99.90
40291;DHT22;26000;48.304;13.626;2022-08-21T05:13:46;18.50;99.90
40291;DHT22;26000;48.304;13.626;2022-08-21T05:16:12;18.50;99.90
40291;DHT22;26000;48.304;13.626;2022-08-21T05:18:37;18.50;99.90
40291;DHT22;26000;48.304;13.626;2022-08-21T05:21:04;18.50;99.90
40291;DHT22;26000;48.304;13.626;2022-08-21T05:23:30;18.50;99.90
40291;DHT22;26000;48.304;13.626;2022-08-21T05:25:56;18.50;99.90
40291;DHT22;26000;48.304;13.626;2022-08-21T05:28:22;18.50;99.90
40291;DHT22;26000;48.304;13.626;2022-08-21T05:30:49;18.50;99.90
40291;DHT22;26000;48.304;13.626;2022-08-21T05:33:14;18.50;99.90
40291;DHT22;26000;48.304;13.626;2022-08-21T05:35:40;18.50;99.90
40291;DHT22;26000;48.304;13.626;2022-08-21T05:38:06;18.40;99.90
40291;DHT22;26000;48.304;13.626;2022-08-21T05:40:32;18.50;99.90
40291;DHT22;26000;48.304;13.626;2022-08-21T05:42:58;18.50;99.90
40291;DHT22;26000;48.304;13.626;2022-08-21T05:45:31;18.50;99.90
40291;DHT22;26000;48.304;13.626;2022-08-21T05:47:56;18.60;99.90
40291;DHT22;26000;48.304;13.626;2022-08-21T05:50:22;18.60;99.90
40291;DHT22;26000;48.304;13.626;2022-08-21T05:52:48;18.60;99.90
40291;DHT22;26000;48.304;13.626;2022-08-21T05:55:14;18.50;99.90
40291;DHT22;26000;48.304;13.626;2022-08-21T05:57:39;18.60;99.90
40291;DHT22;26000;48.304;13.626;2022-08-21T06:00:08;18.60;99.90
40291;DHT22;26000;48.304;13.626;2022-08-21T06:02:38;18.60;99.90
40291;DHT22;26000;48.304;13.626;2022-08-21T06:05:04;18.60;99.90
40291;DHT22;26000;48.304;13.626;2022-08-21T06:07:30;18.60;99.90
40291;DHT22;26000;48.304;13.626;2022-08-21T06:09:55;18.60;99.90
40291;DHT22;26000;48.304;13.626;2022-08-21T06:12:21;18.70;99.90
40291;DHT22;26000;48.304;13.626;2022-08-21T06:14:47;18.70;99.90
40291;DHT22;26000;48.304;13.626;2022-08-21T06:17:12;18.70;99.90
40291;DHT22;26000;48.304;13.626;2022-08-21T06:19:40;18.70;99.90
40291;DHT22;26000;48.304;13.626;2022-08-21T06:22:06;18.70;99.90
40291;DHT22;26000;48.304;13.626;2022-08-21T06:24:32;18.60;99.90
40291;DHT22;26000;48.304;13.626;2022-08-21T06:26:58;18.70;99.90
40291;DHT22;26000;48.304;13.626;2022-08-21T06:29:24;18.80;99.90
40291;DHT22;26000;48.304;13.626;2022-08-21T06:31:51;18.80;99.90
40291;DHT22;26000;48.304;13.626;2022-08-21T06:34:17;18.80;99.90
40291;DHT22;26000;48.304;13.626;2022-08-21T06:36:43;18.80;99.90
40291;DHT22;26000;48.304;13.626;2022-08-21T06:39:09;18.80;99.90
40291;DHT22;26000;48.304;13.626;2022-08-21T06:41:35;18.80;99.90
40291;DHT22;26000;48.304;13.626;2022-08-21T06:44:00;18.80;99.90
40291;DHT22;26000;48.304;13.626;2022-08-21T06:46:30;18.80;99.90
40291;DHT22;26000;48.304;13.626;2022-08-21T06:48:56;18.90;99.90
40291;DHT22;26000;48.304;13.626;2022-08-21T06:51:23;18.90;99.90
40291;DHT22;26000;48.304;13.626;2022-08-21T06:53:50;19.00;99.90
40291;DHT22;26000;48.304;13.626;2022-08-21T06:56:16;19.00;99.90
40291;DHT22;26000;48.304;13.626;2022-08-21T06:58:42;19.00;99.90
40291;DHT22;26000;48.304;13.626;2022-08-21T07:01:08;19.10;99.90
40291;DHT22;26000;48.304;13.626;2022-08-21T07:03:37;19.10;99.90
40291;DHT22;26000;48.304;13.626;2022-08-21T07:06:05;19.10;99.90
40291;DHT22;26000;48.304;13.626;2022-08-21T07:08:31;19.10;99.90
40291;DHT22;26000;48.304;13.626;2022-08-21T07:10:58;19.10;99.90
40291;DHT22;26000;48.304;13.626;2022-08-21T07:13:25;19.00;99.90
40291;DHT22;26000;48.304;13.626;2022-08-21T07:15:51;19.00;99.90
40291;DHT22;26000;48.304;13.626;2022-08-21T07:18:17;19.00;99.90
40291;DHT22;26000;48.304;13.626;2022-08-21T07:20:43;19.00;99.90
40291;DHT22;26000;48.304;13.626;2022-08-21T07:23:12;19.00;99.90
40291;DHT22;26000;48.304;13.626;2022-08-21T07:25:39;19.00;99.90
40291;DHT22;26000;48.304;13.626;2022-08-21T07:28:04;19.10;99.90
40291;DHT22;26000;48.304;13.626;2022-08-21T07:30:31;19.10;99.90
40291;DHT22;26000;48.304;13.626;2022-08-21T07:32:56;19.10;99.90
40291;DHT22;26000;48.304;13.626;2022-08-21T07:35:22;19.10;99.90
40291;DHT22;26000;48.304;13.626;2022-08-21T07:37:48;19.10;99.90
40291;DHT22;26000;48.304;13.626;2022-08-21T07:40:15;19.10;99.90
40291;DHT22;26000;48.304;13.626;2022-08-21T07:42:46;19.10;99.90
40291;DHT22;26000;48.304;13.626;2022-08-21T07:45:13;19.10;99.90
40291;DHT22;26000;48.304;13.626;2022-08-21T07:47:39;19.20;99.90
40291;DHT22;26000;48.304;13.626;2022-08-21T07:50:06;19.20;99.90
40291;DHT22;26000;48.304;13.626;2022-08-21T07:52:32;19.10;99.90
40291;DHT22;26000;48.304;13.626;2022-08-21T07:54:59;19.20;99.90
40291;DHT22;26000;48.304;13.626;2022-08-21T07:57:25;19.10;99.90
40291;DHT22;26000;48.304;13.626;2022-08-21T07:59:51;19.20;99.90
40291;DHT22;26000;48.304;13.626;2022-08-21T08:02:29;19.20;99.90
40291;DHT22;26000;48.304;13.626;2022-08-21T08:04:59;19.30;99.90
40291;DHT22;26000;48.304;13.626;2022-08-21T08:07:26;19.30;99.90
40291;DHT22;26000;48.304;13.626;2022-08-21T08:09:52;19.40;99.90
40291;DHT22;26000;48.304;13.626;2022-08-21T08:12:18;19.40;99.90
40291;DHT22;26000;48.304;13.626;2022-08-21T08:14:44;19.50;99.90
40291;DHT22;26000;48.304;13.626;2022-08-21T08:17:09;19.50;99.90
40291;DHT22;26000;48.304;13.626;2022-08-21T08:19:35;19.60;99.90
40291;DHT22;26000;48.304;13.626;2022-08-21T08:22:01;19.70;99.90
40291;DHT22;26000;48.304;13.626;2022-08-21T08:24:27;19.70;99.90
40291;DHT22;26000;48.304;13.626;2022-08-21T08:26:53;19.80;99.90
40291;DHT22;26000;48.304;13.626;2022-08-21T08:29:20;19.90;99.90
40291;DHT22;26000;48.304;13.626;2022-08-21T08:31:46;19.90;99.90
40291;DHT22;26000;48.304;13.626;2022-08-21T08:34:12;19.90;99.90
40291;DHT22;26000;48.304;13.626;2022-08-21T08:36:37;19.90;99.90
40291;DHT22;26000;48.304;13.626;2022-08-21T08:39:04;20.00;99.90
40291;DHT22;26000;48.304;13.626;2022-08-21T08:41:31;20.00;99.90
40291;DHT22;26000;48.304;13.626;2022-08-21T08:44:04;20.10;99.90
40291;DHT22;26000;48.304;13.626;2022-08-21T08:46:46;20.20;99.90
40291;DHT22;26000;48.304;13.626;2022-08-21T08:52:00;20.20;99.90
40291;DHT22;26000;48.304;13.626;2022-08-21T08:54:38;20.30;99.90
40291;DHT22;26000;48.304;13.626;2022-08-21T08:57:13;20.30;99.90
40291;DHT22;26000;48.304;13.626;2022-08-21T08:59:49;20.40;99.90
40291;DHT22;26000;48.304;13.626;2022-08-21T09:02:16;20.50;99.90
40291;DHT22;26000;48.304;13.626;2022-08-21T09:04:44;20.50;99.90
40291;DHT22;26000;48.304;13.626;2022-08-21T09:10:39;20.50;99.90
40291;DHT22;26000;48.304;13.626;2022-08-21T09:14:09;20.50;99.90
40291;DHT22;26000;48.304;13.626;2022-08-21T09:16:42;20.50;99.90
40291;DHT22;26000;48.304;13.626;2022-08-21T09:22:06;20.50;99.90
40291;DHT22;26000;48.304;13.626;2022-08-21T09:27:18;20.30;99.90
40291;DHT22;26000;48.304;13.626;2022-08-21T09:29:48;20.30;99.90
40291;DHT22;26000;48.304;13.626;2022-08-21T09:32:22;20.20;99.90
40291;DHT22;26000;48.304;13.626;2022-08-21T09:35:03;20.20;99.90
40291;DHT22;26000;48.304;13.626;2022-08-21T09:37:31;20.00;99.90
40291;DHT22;26000;48.304;13.626;2022-08-21T09:39:58;20.00;99.90
40291;DHT22;26000;48.304;13.626;2022-08-21T09:42:31;19.90;99.90
40291;DHT22;26000;48.304;13.626;2022-08-21T09:45:18;19.90;99.90
40291;DHT22;26000;48.304;13.626;2022-08-21T09:47:43;19.90;99.90
40291;DHT22;26000;48.304;13.626;2022-08-21T09:50:16;19.90;99.90
40291;DHT22;26000;48.304;13.626;2022-08-21T09:52:48;20.00;99.90
40291;DHT22;26000;48.304;13.626;2022-08-21T09:55:32;20.00;99.90
40291;DHT22;26000;48.304;13.626;2022-08-21T09:58:18;20.30;99.90
40291;DHT22;26000;48.304;13.626;2022-08-21T10:00:44;20.80;99.90
40291;DHT22;26000;48.304;13.626;2022-08-21T10:03:19;21.10;99.90
40291;DHT22;26000;48.304;13.626;2022-08-21T10:06:04;21.40;99.90
40291;DHT22;26000;48.304;13.626;2022-08-21T10:08:34;22.00;99.90
40291;DHT22;26000;48.304;13.626;2022-08-21T10:11:14;22.50;99.90
40291;DHT22;26000;48.304;13.626;2022-08-21T10:19:43;23.20;99.90
40291;DHT22;26000;48.304;13.626;2022-08-21T10:25:19;23.50;99.90
40291;DHT22;26000;48.304;13.626;2022-08-21T10:27:52;23.60;99.90
40291;DHT22;26000;48.304;13.626;2022-08-21T10:35:53;24.00;99.90
40291;DHT22;26000;48.304;13.626;2022-08-21T10:38:59;23.80;99.90
40291;DHT22;26000;48.304;13.626;2022-08-21T10:41:55;23.90;99.90
40291;DHT22;26000;48.304;13.626;2022-08-21T10:47:29;24.40;99.90
40291;DHT22;26000;48.304;13.626;2022-08-21T10:50:19;24.20;99.90
40291;DHT22;26000;48.304;13.626;2022-08-21T10:55:41;23.90;99.90
40291;DHT22;26000;48.304;13.626;2022-08-21T10:58:11;23.80;99.90
40291;DHT22;26000;48.304;13.626;2022-08-21T11:00:49;23.80;99.90
40291;DHT22;26000;48.304;13.626;2022-08-21T11:06:18;23.80;99.90
40291;DHT22;26000;48.304;13.626;2022-08-21T11:08:49;24.10;99.90
40291;DHT22;26000;48.304;13.626;2022-08-21T11:11:22;24.20;99.90
40291;DHT22;26000;48.304;13.626;2022-08-21T11:13:59;24.40;99.90
40291;DHT22;26000;48.304;13.626;2022-08-21T11:16:50;24.20;99.90
40291;DHT22;26000;48.304;13.626;2022-08-21T11:22:28;24.40;99.90
40291;DHT22;26000;48.304;13.626;2022-08-21T11:25:23;24.40;99.90
40291;DHT22;26000;48.304;13.626;2022-08-21T11:27:56;24.60;99.90
40291;DHT22;26000;48.304;13.626;2022-08-21T11:30:29;24.90;99.90
40291;DHT22;26000;48.304;13.626;2022-08-21T11:33:44;24.90;99.90
40291;DHT22;26000;48.304;13.626;2022-08-21T11:35:56;24.80;99.90
40291;DHT22;26000;48.304;13.626;2022-08-21T11:38:57;24.60;99.90
40291;DHT22;26000;48.304;13.626;2022-08-21T11:41:30;24.40;99.90
40291;DHT22;26000;48.304;13.626;2022-08-21T11:47:01;24.10;99.90
40291;DHT22;26000;48.304;13.626;2022-08-21T11:52:48;23.60;99.90
40291;DHT22;26000;48.304;13.626;2022-08-21T11:55:19;23.70;99.90
40291;DHT22;26000;48.304;13.626;2022-08-21T11:57:57;23.70;99.90
40291;DHT22;26000;48.304;13.626;2022-08-21T12:00:40;23.90;99.90
40291;DHT22;26000;48.304;13.626;2022-08-21T12:03:12;24.20;99.90
40291;DHT22;26000;48.304;13.626;2022-08-21T12:05:54;24.50;99.90
40291;DHT22;26000;48.304;13.626;2022-08-21T12:13:29;25.00;99.90
40291;DHT22;26000;48.304;13.626;2022-08-21T12:16:13;25.10;99.90
40291;DHT22;26000;48.304;13.626;2022-08-21T12:18:40;25.40;99.90
40291;DHT22;26000;48.304;13.626;2022-08-21T12:21:27;25.50;99.90
40291;DHT22;26000;48.304;13.626;2022-08-21T12:24:31;25.60;99.90
40291;DHT22;26000;48.304;13.626;2022-08-21T12:27:19;25.60;99.90
40291;DHT22;26000;48.304;13.626;2022-08-21T12:29:55;25.50;99.90
40291;DHT22;26000;48.304;13.626;2022-08-21T12:32:27;25.30;99.90
40291;DHT22;26000;48.304;13.626;2022-08-21T12:35:06;25.20;99.90
40291;DHT22;26000;48.304;13.626;2022-08-21T12:37:44;25.10;99.90
40291;DHT22;26000;48.304;13.626;2022-08-21T12:40:31;25.00;99.90
40291;DHT22;26000;48.304;13.626;2022-08-21T12:43:00;24.90;99.90
40291;DHT22;26000;48.304;13.626;2022-08-21T12:45:47;24.70;99.90
40291;DHT22;26000;48.304;13.626;2022-08-21T12:51:12;23.70;99.90
40291;DHT22;26000;48.304;13.626;2022-08-21T12:53:49;23.10;99.90
40291;DHT22;26000;48.304;13.626;2022-08-21T12:56:19;22.50;99.90
40291;DHT22;26000;48.304;13.626;2022-08-21T12:58:55;22.10;99.90
40291;DHT22;26000;48.304;13.626;2022-08-21T13:03:54;20.90;99.90
40291;DHT22;26000;48.304;13.626;2022-08-21T13:06:22;20.40;99.90
40291;DHT22;26000;48.304;13.626;2022-08-21T13:08:56;20.20;99.90
40291;DHT22;26000;48.304;13.626;2022-08-21T13:11:23;19.80;99.90
40291;DHT22;26000;48.304;13.626;2022-08-21T13:13:51;19.30;99.90
40291;DHT22;26000;48.304;13.626;2022-08-21T13:16:22;19.30;99.90
40291;DHT22;26000;48.304;13.626;2022-08-21T13:19:05;19.50;99.90
40291;DHT22;26000;48.304;13.626;2022-08-21T13:21:41;19.40;99.90
40291;DHT22;26000;48.304;13.626;2022-08-21T13:24:20;19.50;99.90
40291;DHT22;26000;48.304;13.626;2022-08-21T13:26:47;19.70;99.90
40291;DHT22;26000;48.304;13.626;2022-08-21T13:29:16;19.80;99.90
40291;DHT22;26000;48.304;13.626;2022-08-21T13:31:51;19.90;99.90
40291;DHT22;26000;48.304;13.626;2022-08-21T13:34:18;20.00;99.90
40291;DHT22;26000;48.304;13.626;2022-08-21T13:36:45;20.00;99.90
40291;DHT22;26000;48.304;13.626;2022-08-21T13:39:19;20.00;99.90
40291;DHT22;26000;48.304;13.626;2022-08-21T13:41:48;20.00;99.90
40291;DHT22;26000;48.304;13.626;2022-08-21T13:44:33;20.00;99.90
40291;DHT22;26000;48.304;13.626;2022-08-21T13:47:03;20.00;99.90
40291;DHT22;26000;48.304;13.626;2022-08-21T13:49:32;20.20;99.90
40291;DHT22;26000;48.304;13.626;2022-08-21T13:51:58;20.10;99.90
40291;DHT22;26000;48.304;13.626;2022-08-21T13:54:25;20.20;99.90
40291;DHT22;26000;48.304;13.626;2022-08-21T13:56:53;20.10;99.90
40291;DHT22;26000;48.304;13.626;2022-08-21T13:59:34;20.10;99.90
40291;DHT22;26000;48.304;13.626;2022-08-21T14:02:18;20.10;99.90
40291;DHT22;26000;48.304;13.626;2022-08-21T14:04:55;20.00;99.90
40291;DHT22;26000;48.304;13.626;2022-08-21T14:07:38;20.00;99.90
40291;DHT22;26000;48.304;13.626;2022-08-21T14:10:15;20.00;99.90
40291;DHT22;26000;48.304;13.626;2022-08-21T14:12:54;20.10;99.90
40291;DHT22;26000;48.304;13.626;2022-08-21T14:15:24;20.00;99.90
40291;DHT22;26000;48.304;13.626;2022-08-21T14:17:51;20.00;99.90
40291;DHT22;26000;48.304;13.626;2022-08-21T14:20:31;20.00;99.90
40291;DHT22;26000;48.304;13.626;2022-08-21T14:22:58;20.00;99.90
40291;DHT22;26000;48.304;13.626;2022-08-21T14:28:09;20.00;99.90
40291;DHT22;26000;48.304;13.626;2022-08-21T14:30:39;20.00;99.90
40291;DHT22;26000;48.304;13.626;2022-08-21T14:33:10;20.00;99.90
40291;DHT22;26000;48.304;13.626;2022-08-21T14:35:37;20.10;99.90
40291;DHT22;26000;48.304;13.626;2022-08-21T14:38:12;20.10;99.90
40291;DHT22;26000;48.304;13.626;2022-08-21T14:40:37;20.00;99.90
40291;DHT22;26000;48.304;13.626;2022-08-21T14:43:03;20.10;99.90
40291;DHT22;26000;48.304;13.626;2022-08-21T14:45:30;20.00;99.90
40291;DHT22;26000;48.304;13.626;2022-08-21T14:47:57;19.90;99.90
40291;DHT22;26000;48.304;13.626;2022-08-21T14:50:24;19.90;99.90
40291;DHT22;26000;48.304;13.626;2022-08-21T14:52:49;20.00;99.90
40291;DHT22;26000;48.304;13.626;2022-08-21T14:55:16;19.80;99.90
40291;DHT22;26000;48.304;13.626;2022-08-21T14:57:50;19.80;99.90
40291;DHT22;26000;48.304;13.626;2022-08-21T15:00:22;19.90;99.90
40291;DHT22;26000;48.304;13.626;2022-08-21T15:02:52;19.80;99.90
40291;DHT22;26000;48.304;13.626;2022-08-21T15:05:18;19.70;99.90
40291;DHT22;26000;48.304;13.626;2022-08-21T15:07:44;19.70;99.90
40291;DHT22;26000;48.304;13.626;2022-08-21T15:10:10;19.70;99.90
40291;DHT22;26000;48.304;13.626;2022-08-21T15:12:36;19.70;99.90
40291;DHT22;26000;48.304;13.626;2022-08-21T15:15:04;19.80;99.90
40291;DHT22;26000;48.304;13.626;2022-08-21T15:17:30;19.80;99.90
40291;DHT22;26000;48.304;13.626;2022-08-21T15:19:56;19.80;99.90
40291;DHT22;26000;48.304;13.626;2022-08-21T15:22:22;19.90;99.90
40291;DHT22;26000;48.304;13.626;2022-08-21T15:24:47;19.90;99.90
40291;DHT22;26000;48.304;13.626;2022-08-21T15:27:16;19.90;99.90
40291;DHT22;26000;48.304;13.626;2022-08-21T15:29:43;19.80;99.90
40291;DHT22;26000;48.304;13.626;2022-08-21T15:32:24;19.80;99.90
40291;DHT22;26000;48.304;13.626;2022-08-21T15:34:52;19.80;99.90
40291;DHT22;26000;48.304;13.626;2022-08-21T15:37:19;19.90;99.90
40291;DHT22;26000;48.304;13.626;2022-08-21T15:39:44;19.90;99.90
40291;DHT22;26000;48.304;13.626;2022-08-21T15:42:11;19.90;99.90
40291;DHT22;26000;48.304;13.626;2022-08-21T15:44:41;20.00;99.90
40291;DHT22;26000;48.304;13.626;2022-08-21T15:47:17;19.90;99.90
40291;DHT22;26000;48.304;13.626;2022-08-21T15:49:43;19.90;99.90
40291;DHT22;26000;48.304;13.626;2022-08-21T15:52:12;19.90;99.90
40291;DHT22;26000;48.304;13.626;2022-08-21T15:54:38;19.90;99.90
40291;DHT22;26000;48.304;13.626;2022-08-21T15:57:03;19.90;99.90
40291;DHT22;26000;48.304;13.626;2022-08-21T15:59:32;20.00;99.90
40291;DHT22;26000;48.304;13.626;2022-08-21T16:02:03;20.10;99.90
40291;DHT22;26000;48.304;13.626;2022-08-21T16:04:29;20.10;99.90
40291;DHT22;26000;48.304;13.626;2022-08-21T16:06:55;20.10;99.90
40291;DHT22;26000;48.304;13.626;2022-08-21T16:09:22;20.20;99.90
40291;DHT22;26000;48.304;13.626;2022-08-21T16:11:48;20.10;99.90
40291;DHT22;26000;48.304;13.626;2022-08-21T16:14:15;20.00;99.90
40291;DHT22;26000;48.304;13.626;2022-08-21T16:16:42;20.10;99.90
40291;DHT22;26000;48.304;13.626;2022-08-21T16:19:09;20.10;99.90
40291;DHT22;26000;48.304;13.626;2022-08-21T16:21:35;20.00;99.90
40291;DHT22;26000;48.304;13.626;2022-08-21T16:24:01;20.00;99.90
40291;DHT22;26000;48.304;13.626;2022-08-21T16:26:28;19.90;99.90
40291;DHT22;26000;48.304;13.626;2022-08-21T16:28:55;19.90;99.90